Time;durP1;ratioP1;P1;durP2;ratioP2;P2;SDS_P1;SDS_P2;PMS_P1;PMS_P2;Temp;Humidity;BMP_temperature;BMP_pressure;BME280_temperature;BME280_humidity;BME280_pressure;Samples;Min_cycle;Max_cycle;Signal;HPM_P1;HPM_P2
2022/10/05 00:01:24;;;;;;;15.43;13.97;;;9.30;99.90;;;;;;4978355;28;21017;-90
2022/10/05 00:03:57;;;;;;;14.97;13.80;;;8.90;99.90;;;;;;4973335;28;20633;-89
2022/10/05 00:06:25;;;;;;;14.93;13.60;;;9.00;99.90;;;;;;4972819;28;20662;-89
2022/10/05 00:08:53;;;;;;;14.50;13.30;;;8.80;99.90;;;;;;4974060;28;20708;-90
2022/10/05 00:11:20;;;;;;;13.93;12.67;;;9.20;99.90;;;;;;4967475;28;20680;-88
2022/10/05 00:13:47;;;;;;;13.90;12.73;;;9.10;99.90;;;;;;4967666;28;20630;-88
2022/10/05 00:16:17;;;;;;;14.23;13.13;;;9.30;99.90;;;;;;4965999;28;20628;-88
2022/10/05 00:18:48;;;;;;;16.00;14.80;;;8.80;99.90;;;;;;4967243;28;20729;-89
2022/10/05 00:21:20;;;;;;;14.40;13.17;;;9.20;99.90;;;;;;4968529;28;20668;-89
2022/10/05 00:23:48;;;;;;;13.70;12.50;;;9.00;99.90;;;;;;4961184;28;20626;-88
2022/10/05 00:26:20;;;;;;;14.43;13.07;;;9.10;99.90;;;;;;4968531;28;20645;-89
2022/10/05 00:28:47;;;;;;;13.27;11.90;;;9.20;99.90;;;;;;4966985;28;20710;-89
2022/10/05 00:31:17;;;;;;;13.50;12.40;;;9.10;99.90;;;;;;4964604;28;21264;-89
2022/10/05 00:33:45;;;;;;;16.87;14.03;;;9.10;99.90;;;;;;4969787;28;20645;-90
2022/10/05 00:36:14;;;;;;;14.50;13.40;;;9.10;99.90;;;;;;4965464;28;21200;-89
2022/10/05 00:38:43;;;;;;;13.30;12.10;;;8.70;99.90;;;;;;4966206;28;21234;-89
2022/10/05 00:41:14;;;;;;;13.00;11.80;;;8.70;99.90;;;;;;4968927;28;20660;-89
2022/10/05 00:44:16;;;;;;;14.30;13.20;;;9.10;99.90;;;;;;4967428;28;20989;-90
2022/10/05 00:46:55;;;;;;;13.00;11.80;;;9.00;99.90;;;;;;4949071;28;21202;-90
2022/10/05 00:49:37;;;;;;;13.30;12.20;;;9.00;99.90;;;;;;4958837;28;21172;-89
2022/10/05 00:52:11;;;;;;;13.27;11.97;;;8.70;99.90;;;;;;4965261;28;20654;-90
2022/10/05 00:54:44;;;;;;;12.70;11.50;;;9.30;99.90;;;;;;4968259;28;20629;-89
2022/10/05 00:57:24;;;;;;;13.13;11.90;;;8.60;99.90;;;;;;4965962;28;21213;-90
2022/10/05 01:00:03;;;;;;;13.73;12.43;;;8.70;99.90;;;;;;4967957;28;20710;-89
2022/10/05 01:02:39;;;;;;;13.20;12.00;;;8.70;99.90;;;;;;4963858;28;21213;-89
2022/10/05 01:05:12;;;;;;;14.10;13.00;;;8.70;99.90;;;;;;4965702;28;20637;-89
2022/10/05 01:07:44;;;;;;;13.60;12.40;;;9.00;99.90;;;;;;4963357;28;21178;-89
2022/10/05 01:10:22;;;;;;;14.20;13.00;;;8.60;99.90;;;;;;4967009;28;20625;-90
2022/10/05 01:13:02;;;;;;;14.60;13.30;;;8.90;99.90;;;;;;4961307;28;20634;-89
2022/10/05 01:15:36;;;;;;;14.50;13.20;;;8.50;99.90;;;;;;4963165;28;20628;-89
2022/10/05 01:18:07;;;;;;;15.10;13.80;;;8.90;99.90;;;;;;4961390;28;20751;-89
2022/10/05 01:20:43;;;;;;;14.67;13.37;;;8.90;99.90;;;;;;4963606;28;20621;-90
2022/10/05 01:23:37;;;;;;;13.40;12.30;;;8.60;99.90;;;;;;4967625;28;20632;-89
2022/10/05 01:26:31;;;;;;;12.70;11.70;;;8.90;99.90;;;;;;4958084;28;20634;-89
2022/10/05 01:29:05;;;;;;;16.47;14.77;;;8.90;99.90;;;;;;4964554;28;21348;-88
2022/10/05 01:31:53;;;;;;;13.67;12.57;;;8.50;99.90;;;;;;4961856;28;20965;-89
2022/10/05 01:34:31;;;;;;;14.50;13.30;;;8.80;99.90;;;;;;4967566;28;20614;-89
2022/10/05 01:37:04;;;;;;;16.70;15.10;;;8.70;99.90;;;;;;4958203;28;20713;-90
2022/10/05 01:39:38;;;;;;;17.00;15.40;;;8.80;99.90;;;;;;4964711;28;21019;-89
2022/10/05 01:42:13;;;;;;;18.33;14.67;;;8.60;99.90;;;;;;4964565;28;20638;-89
2022/10/05 01:44:50;;;;;;;14.73;13.50;;;8.80;99.90;;;;;;4963114;28;20625;-89
2022/10/05 01:47:26;;;;;;;15.33;14.03;;;8.30;99.90;;;;;;4970738;28;20624;-89
2022/10/05 01:50:01;;;;;;;15.33;14.10;;;8.70;99.90;;;;;;4976704;28;20625;-89
2022/10/05 01:52:36;;;;;;;15.10;13.80;;;8.80;99.90;;;;;;4978803;28;20640;-89
2022/10/05 01:55:17;;;;;;;14.87;13.47;;;8.60;99.90;;;;;;4966692;28;20633;-89
2022/10/05 01:57:57;;;;;;;14.60;13.20;;;8.60;99.90;;;;;;4968326;28;20673;-89
2022/10/05 02:00:27;;;;;;;14.33;13.00;;;8.20;99.90;;;;;;4967031;28;20617;-89
2022/10/05 02:03:01;;;;;;;12.87;11.77;;;8.20;99.90;;;;;;4966679;28;20646;-89
2022/10/05 02:05:35;;;;;;;12.97;11.93;;;8.90;99.90;;;;;;4965628;28;20724;-89
2022/10/05 02:08:07;;;;;;;13.33;12.10;;;8.20;99.90;;;;;;4966522;28;20632;-88
2022/10/05 02:10:38;;;;;;;11.40;10.43;;;8.10;99.90;;;;;;4958557;28;20733;-89
2022/10/05 02:13:11;;;;;;;15.40;13.80;;;8.20;99.90;;;;;;4959872;28;20650;-89
2022/10/05 02:15:44;;;;;;;14.37;13.20;;;8.50;99.90;;;;;;4966969;28;20652;-89
2022/10/05 02:18:17;;;;;;;16.63;15.00;;;8.50;99.90;;;;;;4968828;28;20665;-89
2022/10/05 02:20:45;;;;;;;18.87;13.30;;;8.20;99.90;;;;;;4965204;28;20665;-88
2022/10/05 02:23:18;;;;;;;15.17;13.80;;;8.50;99.90;;;;;;4967591;28;20636;-88
2022/10/05 02:25:47;;;;;;;15.30;14.10;;;8.60;99.90;;;;;;4963474;28;20646;-89
2022/10/05 02:28:20;;;;;;;14.07;12.73;;;8.20;99.90;;;;;;4966616;28;20632;-88
2022/10/05 02:30:52;;;;;;;14.43;13.23;;;8.20;99.90;;;;;;4968483;28;20618;-88
2022/10/05 02:33:24;;;;;;;13.70;12.67;;;8.60;99.90;;;;;;4964177;28;20625;-89
2022/10/05 02:35:51;;;;;;;12.60;11.40;;;8.50;99.90;;;;;;4970135;28;20633;-89
2022/10/05 02:38:28;;;;;;;11.93;10.93;;;8.20;99.90;;;;;;4965383;28;20665;-89
2022/10/05 02:41:02;;;;;;;13.53;12.43;;;8.20;99.90;;;;;;4966560;28;20731;-90
2022/10/05 02:43:39;;;;;;;12.70;11.70;;;8.00;99.90;;;;;;4967343;28;20631;-88
2022/10/05 02:46:15;;;;;;;12.80;11.80;;;7.90;99.90;;;;;;4967907;28;20649;-89
2022/10/05 02:48:48;;;;;;;13.73;12.33;;;8.00;99.90;;;;;;4967454;28;20633;-88
2022/10/05 02:51:22;;;;;;;13.27;11.93;;;7.80;99.90;;;;;;4969135;28;21014;-88
2022/10/05 02:54:03;;;;;;;13.23;12.03;;;8.10;99.90;;;;;;4969196;28;20647;-89
2022/10/05 02:56:37;;;;;;;12.90;11.40;;;8.00;99.90;;;;;;4970951;28;20632;-89
2022/10/05 02:59:09;;;;;;;11.70;10.53;;;8.20;99.90;;;;;;4965235;28;20673;-89
2022/10/05 03:01:46;;;;;;;10.50;9.60;;;7.90;99.90;;;;;;4967276;28;20692;-89
2022/10/05 03:04:24;;;;;;;10.50;8.77;;;8.20;99.90;;;;;;4969017;28;20656;-89
2022/10/05 03:06:58;;;;;;;10.57;9.57;;;7.70;99.90;;;;;;4969758;28;20637;-89
2022/10/05 03:09:29;;;;;;;10.77;9.60;;;7.80;99.90;;;;;;4971890;28;20629;-89
2022/10/05 03:12:06;;;;;;;10.53;9.63;;;7.80;99.90;;;;;;4969575;28;20653;-89
2022/10/05 03:14:40;;;;;;;10.93;10.03;;;8.20;99.90;;;;;;4962959;28;20712;-89
2022/10/05 03:17:15;;;;;;;10.77;9.67;;;8.00;99.90;;;;;;4969416;28;20631;-89
2022/10/05 03:20:03;;;;;;;14.57;10.93;;;8.30;99.90;;;;;;4970355;28;20728;-90
2022/10/05 03:22:45;;;;;;;10.63;9.63;;;8.60;99.90;;;;;;4972855;28;20685;-89
2022/10/05 03:25:27;;;;;;;10.97;10.00;;;8.40;99.90;;;;;;4974946;28;20769;-88
2022/10/05 03:28:00;;;;;;;10.47;9.37;;;8.40;99.90;;;;;;4979019;28;20672;-88
2022/10/05 03:30:34;;;;;;;11.13;10.23;;;8.30;99.90;;;;;;4968367;28;20644;-86
2022/10/05 03:33:11;;;;;;;10.80;9.90;;;8.50;99.90;;;;;;4963212;28;20672;-88
2022/10/05 03:35:48;;;;;;;10.53;9.73;;;8.40;99.90;;;;;;4967774;28;20639;-89
2022/10/05 03:38:22;;;;;;;13.67;10.80;;;8.10;99.90;;;;;;4971822;28;20660;-88
2022/10/05 03:40:58;;;;;;;11.33;10.20;;;8.40;99.90;;;;;;4970466;28;20641;-88
2022/10/05 03:43:49;;;;;;;11.40;10.43;;;8.30;99.90;;;;;;4967122;28;20622;-88
2022/10/05 03:46:24;;;;;;;11.33;10.53;;;8.40;99.90;;;;;;4965527;28;20993;-89
2022/10/05 03:49:00;;;;;;;11.03;10.13;;;8.00;99.90;;;;;;4971220;28;20665;-89
2022/10/05 03:51:32;;;;;;;11.60;10.60;;;8.40;99.90;;;;;;4970298;28;21017;-88
2022/10/05 03:54:05;;;;;;;12.67;10.27;;;8.10;99.90;;;;;;4964908;28;20630;-89
2022/10/05 03:56:36;;;;;;;11.07;10.17;;;8.30;99.90;;;;;;4968200;28;20621;-88
2022/10/05 03:59:09;;;;;;;12.00;11.10;;;8.20;99.90;;;;;;4961551;28;20669;-88
2022/10/05 04:01:39;;;;;;;13.07;11.97;;;7.90;99.90;;;;;;4967430;28;21319;-88
2022/10/05 04:04:13;;;;;;;13.63;12.43;;;7.70;99.90;;;;;;4966748;28;21060;-89
2022/10/05 04:06:46;;;;;;;12.43;11.33;;;7.50;99.90;;;;;;4968092;28;21220;-88
2022/10/05 04:09:18;;;;;;;11.90;10.90;;;7.70;99.90;;;;;;4966743;28;20621;-90
2022/10/05 04:11:51;;;;;;;13.27;12.03;;;7.70;99.90;;;;;;4970437;28;20660;-89
2022/10/05 04:14:22;;;;;;;12.30;11.13;;;7.90;99.90;;;;;;4968376;28;20634;-89
2022/10/05 04:16:55;;;;;;;12.87;11.80;;;7.50;99.90;;;;;;4966512;28;20614;-89
2022/10/05 04:19:27;;;;;;;12.13;11.03;;;7.90;99.90;;;;;;4968560;28;20679;-89
2022/10/05 04:22:00;;;;;;;13.87;11.00;;;7.70;99.90;;;;;;4968896;28;20657;-89
2022/10/05 04:24:35;;;;;;;13.43;12.20;;;7.70;99.90;;;;;;4968524;28;20589;-89
2022/10/05 04:27:09;;;;;;;12.70;11.43;;;7.90;99.90;;;;;;4968768;28;20700;-89
2022/10/05 04:29:40;;;;;;;11.80;10.77;;;7.90;99.90;;;;;;4967511;28;20586;-89
2022/10/05 04:32:25;;;;;;;12.03;11.03;;;7.80;99.90;;;;;;4970391;28;20992;-88
2022/10/05 04:35:20;;;;;;;15.30;13.70;;;7.60;99.90;;;;;;4965106;28;20660;-90
2022/10/05 04:37:54;;;;;;;14.63;13.30;;;7.90;99.90;;;;;;4965637;28;20630;-89
2022/10/05 04:40:37;;;;;;;13.27;11.97;;;7.90;99.90;;;;;;4969730;28;21149;-89
2022/10/05 04:43:13;;;;;;;14.37;12.87;;;7.80;99.90;;;;;;4961812;28;21033;-88
2022/10/05 04:46:01;;;;;;;13.37;12.27;;;7.40;99.90;;;;;;4969045;28;20724;-89
2022/10/05 04:48:49;;;;;;;14.37;13.10;;;8.00;99.90;;;;;;4967417;28;20640;-89
2022/10/05 04:51:31;;;;;;;14.30;13.00;;;7.60;99.90;;;;;;4966980;28;20637;-89
2022/10/05 04:54:06;;;;;;;14.10;12.80;;;7.50;99.90;;;;;;4967208;28;20710;-89
2022/10/05 04:56:38;;;;;;;14.17;12.97;;;7.30;99.90;;;;;;4962382;28;20626;-89
2022/10/05 04:59:39;;;;;;;16.27;14.67;;;7.20;99.90;;;;;;4963447;28;20670;-90
2022/10/05 05:02:16;;;;;;;13.73;12.40;;;7.70;99.90;;;;;;4966879;28;20656;-89
2022/10/05 05:05:02;;;;;;;19.50;13.13;;;7.40;99.90;;;;;;4963771;28;20648;-89
2022/10/05 05:07:41;;;;;;;14.77;13.47;;;7.50;99.90;;;;;;4964652;28;20661;-89
2022/10/05 05:10:31;;;;;;;15.07;13.57;;;7.30;99.90;;;;;;4954625;28;20642;-89
2022/10/05 05:13:08;;;;;;;15.17;13.80;;;7.60;99.90;;;;;;4963074;28;20656;-88
2022/10/05 05:15:45;;;;;;;15.50;13.97;;;7.20;99.90;;;;;;4967122;28;20620;-89
2022/10/05 05:18:45;;;;;;;14.20;12.80;;;7.30;99.90;;;;;;4961041;28;20665;-88
2022/10/05 05:21:23;;;;;;;15.20;13.70;;;7.50;99.90;;;;;;4964929;28;21223;-89
2022/10/05 05:24:02;;;;;;;13.90;12.57;;;7.40;99.90;;;;;;4967280;28;20645;-89
2022/10/05 05:26:41;;;;;;;12.83;11.70;;;7.10;99.90;;;;;;4966749;28;20644;-90
2022/10/05 05:29:17;;;;;;;13.57;12.37;;;7.00;99.90;;;;;;4965575;28;21196;-90
2022/10/05 05:31:49;;;;;;;12.70;11.80;;;7.40;99.90;;;;;;4965746;28;20676;-89
2022/10/05 05:34:30;;;;;;;12.60;11.50;;;7.10;99.90;;;;;;4965405;28;20613;-88
2022/10/05 05:37:08;;;;;;;12.63;11.60;;;7.00;99.90;;;;;;4965160;28;20693;-90
2022/10/05 05:39:45;;;;;;;15.37;13.97;;;7.50;99.90;;;;;;4966967;28;20708;-89
2022/10/05 05:42:24;;;;;;;16.70;15.50;;;7.50;99.90;;;;;;4969954;28;21310;-89
2022/10/05 05:44:56;;;;;;;14.33;12.97;;;7.20;99.90;;;;;;4970374;28;20998;-89
2022/10/05 05:47:31;;;;;;;13.97;12.83;;;7.60;99.90;;;;;;4967850;28;20628;-89
2022/10/05 05:50:08;;;;;;;13.63;11.90;;;7.50;99.90;;;;;;4964936;28;21323;-90
2022/10/05 05:52:40;;;;;;;12.03;11.10;;;7.30;99.90;;;;;;4968590;28;20659;-90
2022/10/05 05:55:18;;;;;;;13.17;11.80;;;7.60;99.90;;;;;;4967171;28;20629;-89
2022/10/05 05:57:53;;;;;;;12.60;11.50;;;7.70;99.90;;;;;;4965842;28;20641;-89
2022/10/05 06:00:23;;;;;;;11.83;10.83;;;7.40;99.90;;;;;;4966593;28;20665;-89
2022/10/05 06:02:56;;;;;;;11.33;10.53;;;7.70;99.90;;;;;;4967936;28;20650;-88
2022/10/05 06:05:30;;;;;;;11.40;10.50;;;7.70;99.90;;;;;;4963276;28;20625;-89
2022/10/05 06:08:00;;;;;;;12.73;11.53;;;7.80;99.90;;;;;;4969989;28;20621;-89
2022/10/05 06:10:40;;;;;;;13.03;11.93;;;7.40;99.90;;;;;;4970486;28;20647;-90
2022/10/05 06:13:15;;;;;;;13.73;12.43;;;7.30;99.90;;;;;;4968433;28;20647;-89
2022/10/05 06:15:46;;;;;;;16.20;14.47;;;7.40;99.90;;;;;;4967596;28;20697;-89
2022/10/05 06:18:16;;;;;;;83.83;21.50;;;7.40;99.90;;;;;;4969808;28;20621;-90
2022/10/05 06:20:50;;;;;;;94.20;23.20;;;7.80;99.90;;;;;;4972666;28;20641;-89
2022/10/05 06:23:20;;;;;;;35.53;17.83;;;8.00;99.90;;;;;;4967133;28;20621;-88
2022/10/05 06:26:05;;;;;;;30.63;15.50;;;8.20;99.90;;;;;;4968460;28;20629;-88
2022/10/05 06:28:32;;;;;;;23.37;13.97;;;8.20;99.90;;;;;;4972325;28;21007;-89
2022/10/05 06:31:06;;;;;;;16.30;13.37;;;7.80;99.90;;;;;;4971778;28;20669;-88
2022/10/05 06:33:45;;;;;;;15.77;13.40;;;8.30;99.90;;;;;;4972125;28;20621;-88
2022/10/05 06:36:23;;;;;;;16.10;11.80;;;7.80;99.90;;;;;;4972431;28;20653;-88
2022/10/05 06:39:23;;;;;;;12.53;11.33;;;8.50;99.90;;;;;;4971265;28;20661;-87
2022/10/05 06:42:12;;;;;;;12.43;11.23;;;8.50;99.90;;;;;;4968667;28;20641;-88
2022/10/05 06:44:47;;;;;;;13.60;11.93;;;8.50;99.90;;;;;;4964632;28;21217;-89
2022/10/05 06:47:28;;;;;;;14.17;12.77;;;8.40;99.90;;;;;;4968636;28;21430;-89
2022/10/05 06:50:04;;;;;;;12.90;11.90;;;8.30;99.90;;;;;;4965246;28;21048;-88
2022/10/05 06:52:40;;;;;;;14.27;12.20;;;8.60;99.90;;;;;;4974013;28;20720;-89
2022/10/05 06:55:20;;;;;;;13.77;12.43;;;8.70;99.90;;;;;;4973296;28;20724;-89
2022/10/05 06:58:05;;;;;;;13.30;11.90;;;8.80;99.90;;;;;;4977617;28;20743;-90
2022/10/05 07:00:38;;;;;;;13.57;11.50;;;8.70;99.90;;;;;;4972074;28;20679;-90
2022/10/05 07:03:15;;;;;;;13.97;10.73;;;8.90;99.90;;;;;;4982448;28;21081;-90
2022/10/05 07:06:02;;;;;;;11.87;10.77;;;8.60;99.90;;;;;;4967595;28;21029;-89
2022/10/05 07:08:39;;;;;;;14.90;11.10;;;8.70;99.90;;;;;;4970688;28;20633;-89
2022/10/05 07:11:17;;;;;;;13.13;11.60;;;8.70;99.90;;;;;;4970479;28;20643;-90
2022/10/05 07:14:00;;;;;;;14.83;10.90;;;8.80;99.90;;;;;;4969578;28;20629;-89
2022/10/05 07:16:37;;;;;;;11.27;10.20;;;9.30;99.90;;;;;;4964859;28;21242;-88
2022/10/05 07:19:19;;;;;;;9.97;9.07;;;9.40;99.90;;;;;;4967871;28;20669;-90
2022/10/05 07:21:59;;;;;;;12.60;9.17;;;9.60;99.90;;;;;;4968424;28;21044;-90
2022/10/05 07:24:32;;;;;;;10.43;9.40;;;9.70;99.90;;;;;;4967038;28;20669;-90
2022/10/05 07:27:09;;;;;;;16.77;15.47;;;9.80;99.90;;;;;;4967123;28;20625;-89
2022/10/05 07:29:50;;;;;;;16.93;15.83;;;10.00;99.90;;;;;;4964304;28;20720;-89
2022/10/05 07:32:32;;;;;;;12.43;11.13;;;10.10;99.90;;;;;;4962684;28;20732;-88
2022/10/05 07:37:52;;;;;;;8.70;7.77;;;10.30;99.90;;;;;;4966857;28;21277;-89
2022/10/05 07:37:56;;;;;;;7.97;7.30;;;9.90;99.90;;;;;;4959978;28;20626;-88
2022/10/05 07:40:28;;;;;;;8.83;8.03;;;10.40;99.90;;;;;;4969211;28;20672;-89
2022/10/05 07:43:05;;;;;;;10.63;8.00;;;10.50;99.90;;;;;;4968278;28;20653;-90
2022/10/05 07:45:41;;;;;;;10.00;8.83;;;10.30;99.90;;;;;;4969925;28;20836;-92
2022/10/05 07:48:17;;;;;;;8.37;7.53;;;10.80;99.90;;;;;;4970013;28;20633;-92
2022/10/05 07:50:57;;;;;;;7.90;7.10;;;11.00;99.90;;;;;;4970242;28;21078;-91
2022/10/05 07:53:28;;;;;;;8.07;7.40;;;11.10;99.90;;;;;;4965395;28;20575;-89
2022/10/05 07:56:00;;;;;;;9.47;8.07;;;11.10;99.90;;;;;;4970834;28;20768;-91
2022/10/05 07:58:31;;;;;;;8.60;7.80;;;11.20;99.90;;;;;;4968795;28;20708;-91
2022/10/05 08:01:08;;;;;;;8.50;7.67;;;11.30;99.90;;;;;;4967067;28;20670;-92
2022/10/05 08:03:46;;;;;;;9.43;7.20;;;11.50;99.90;;;;;;4970950;28;20687;-91
2022/10/05 08:06:27;;;;;;;7.17;6.60;;;11.60;99.90;;;;;;4969143;28;20776;-91
2022/10/05 08:08:59;;;;;;;7.17;6.57;;;11.90;99.90;;;;;;4963845;28;21016;-89
2022/10/05 08:11:34;;;;;;;7.60;7.00;;;11.50;99.90;;;;;;4966151;28;20638;-90
2022/10/05 08:14:08;;;;;;;8.87;7.97;;;11.50;99.90;;;;;;4961974;28;20677;-90
2022/10/05 08:16:38;;;;;;;8.30;7.50;;;11.90;99.90;;;;;;4967411;28;20665;-90
2022/10/05 08:19:14;;;;;;;7.80;6.83;;;12.00;99.90;;;;;;4966530;28;20626;-90
2022/10/05 08:21:47;;;;;;;7.80;7.00;;;12.40;99.90;;;;;;4963793;28;20697;-91
2022/10/05 08:24:29;;;;;;;7.80;6.63;;;12.40;99.90;;;;;;4967677;28;20629;-90
2022/10/05 08:27:04;;;;;;;8.00;7.30;;;12.70;99.90;;;;;;4969037;28;20653;-90
2022/10/05 08:29:36;;;;;;;8.80;7.90;;;12.80;99.90;;;;;;4966278;28;20963;-90
2022/10/05 08:32:11;;;;;;;8.10;7.30;;;12.90;99.90;;;;;;4964802;28;20602;-91
2022/10/05 08:34:47;;;;;;;8.83;7.10;;;12.90;99.90;;;;;;4962962;28;21428;-91
2022/10/05 08:37:20;;;;;;;8.13;7.50;;;13.10;99.90;;;;;;4969459;28;20621;-91
2022/10/05 08:39:56;;;;;;;9.13;8.27;;;13.30;99.90;;;;;;4962176;28;20753;-90
2022/10/05 08:43:00;;;;;;;15.30;7.90;;;13.40;99.90;;;;;;4965330;28;20736;-91
2022/10/05 08:46:07;;;;;;;8.20;7.50;;;13.80;99.90;;;;;;4962837;28;21676;-91
2022/10/05 08:49:12;;;;;;;6.83;6.20;;;14.00;99.90;;;;;;4888116;29;20631;-91
2022/10/05 08:52:10;;;;;;;7.17;6.47;;;14.20;99.90;;;;;;4953900;28;20641;-91
2022/10/05 08:55:19;;;;;;;7.60;6.90;;;14.30;99.90;;;;;;4967675;28;20675;-91
2022/10/05 08:58:22;;;;;;;18.47;7.13;;;14.40;99.90;;;;;;4955897;28;20633;-91
2022/10/05 09:00:57;;;;;;;8.27;6.50;;;14.70;99.90;;;;;;4964208;28;20683;-91
2022/10/05 09:03:54;;;;;;;6.57;5.97;;;14.80;99.90;;;;;;4970922;28;20643;-91
2022/10/05 09:06:49;;;;;;;6.63;5.63;;;14.80;99.90;;;;;;4972469;28;20641;-92
2022/10/05 09:09:47;;;;;;;6.87;6.20;;;15.00;99.90;;;;;;4962597;28;20649;-91
2022/10/05 09:12:43;;;;;;;5.53;5.13;;;15.50;99.90;;;;;;4953889;28;20665;-92
2022/10/05 09:15:28;;;;;;;8.20;6.00;;;15.30;99.90;;;;;;4970689;28;20857;-92
2022/10/05 09:18:27;;;;;;;6.30;5.80;;;15.40;99.90;;;;;;4972017;28;20644;-92
2022/10/05 09:20:58;;;;;;;7.20;6.07;;;15.10;99.90;;;;;;4965442;28;20669;-91
2022/10/05 09:23:38;;;;;;;7.67;5.20;;;15.10;99.90;;;;;;4968819;28;21208;-91
2022/10/05 09:26:26;;;;;;;7.43;5.20;;;15.30;99.90;;;;;;4967341;28;20795;-91
2022/10/05 09:29:09;;;;;;;5.67;5.17;;;15.40;99.90;;;;;;4975897;28;20991;-91
2022/10/05 09:31:55;;;;;;;7.33;5.20;;;15.60;99.90;;;;;;4979192;28;20633;-91
2022/10/05 09:35:00;;;;;;;6.30;5.17;;;16.10;99.90;;;;;;4983084;28;20671;-91
2022/10/05 09:37:53;;;;;;;5.80;5.30;;;16.30;99.90;;;;;;4917766;29;20719;-91
2022/10/05 09:40:55;;;;;;;10.57;5.10;;;16.80;99.90;;;;;;4902104;29;20683;-91
2022/10/05 09:43:58;;;;;;;4.40;4.10;;;17.40;99.90;;;;;;4972847;28;20668;-91
2022/10/05 09:46:50;;;;;;;6.73;4.17;;;17.70;99.90;;;;;;4978282;28;20688;-91
2022/10/05 09:49:36;;;;;;;4.30;3.90;;;18.50;99.90;;;;;;4978261;28;20633;-93
2022/10/05 09:52:22;;;;;;;4.97;4.47;;;18.80;99.90;;;;;;4976588;28;20638;-93
2022/10/05 09:55:38;;;;;;;4.73;4.30;;;18.70;99.90;;;;;;4983683;28;20680;-92
2022/10/05 09:58:38;;;;;;;7.63;4.43;;;19.10;99.90;;;;;;4910834;29;20719;-91
2022/10/05 10:01:30;;;;;;;4.53;3.77;;;19.60;99.90;;;;;;4905712;29;20776;-91
2022/10/05 10:04:24;;;;;;;4.50;4.20;;;20.40;99.90;;;;;;4915918;29;20767;-92
2022/10/05 10:07:25;;;;;;;5.80;3.60;;;20.90;99.90;;;;;;4909871;29;21209;-91
2022/10/05 10:10:17;;;;;;;3.87;3.20;;;21.10;99.90;;;;;;4948937;28;20636;-91
2022/10/05 10:12:58;;;;;;;4.97;3.90;;;20.70;99.90;;;;;;4931247;28;20629;-91
2022/10/05 10:15:54;;;;;;;3.83;3.53;;;21.00;99.90;;;;;;4971566;28;20745;-92
2022/10/05 10:18:42;;;;;;;3.50;3.20;;;21.60;99.90;;;;;;4956865;28;21023;-92
2022/10/05 10:21:37;;;;;;;3.23;3.00;;;22.10;99.90;;;;;;4971472;28;21020;-92
2022/10/05 10:24:24;;;;;;;5.20;3.67;;;23.30;99.90;;;;;;4971858;28;20625;-91
2022/10/05 10:27:08;;;;;;;3.73;3.43;;;23.90;97.50;;;;;;4976721;28;20632;-91
2022/10/05 10:29:50;;;;;;;3.23;2.83;;;24.50;96.50;;;;;;4970124;28;20639;-92
2022/10/05 10:32:40;;;;;;;4.80;3.67;;;24.90;95.30;;;;;;4967391;28;20638;-90
2022/10/05 10:35:27;;;;;;;3.67;3.10;;;23.90;95.90;;;;;;4965238;28;20653;-92
2022/10/05 10:38:26;;;;;;;3.77;3.57;;;24.90;93.60;;;;;;4967695;28;20679;-92
2022/10/05 10:41:30;;;;;;;5.03;3.17;;;24.70;94.80;;;;;;4968427;28;20678;-90
2022/10/05 10:44:29;;;;;;;4.43;3.23;;;23.90;97.70;;;;;;4973715;28;20623;-92
2022/10/05 10:47:22;;;;;;;3.37;3.07;;;23.90;98.10;;;;;;4971099;28;20625;-93
2022/10/05 10:50:11;;;;;;;4.63;2.60;;;24.50;95.90;;;;;;4965255;28;20668;-92
2022/10/05 10:52:54;;;;;;;3.47;2.70;;;25.50;93.00;;;;;;4967662;28;20641;-92
2022/10/05 10:55:34;;;;;;;3.30;3.00;;;24.70;93.60;;;;;;4961165;28;20687;-91
2022/10/05 10:58:27;;;;;;;7.50;3.00;;;25.20;92.60;;;;;;4968134;28;20624;-91
2022/10/05 11:01:09;;;;;;;3.50;3.20;;;25.70;90.00;;;;;;4968430;28;21255;-92
2022/10/05 11:04:18;;;;;;;3.90;3.10;;;26.70;90.00;;;;;;4967098;28;20624;-92
2022/10/05 11:07:10;;;;;;;3.13;2.87;;;29.00;74.90;;;;;;4950519;28;20644;-92
2022/10/05 11:09:59;;;;;;;5.47;4.97;;;28.40;73.00;;;;;;4964100;28;20638;-92
2022/10/05 11:12:59;;;;;;;4.00;3.20;;;29.80;67.50;;;;;;4969899;28;21002;-93
2022/10/05 11:16:06;;;;;;;4.60;3.33;;;29.70;66.60;;;;;;4967712;28;20736;-93
2022/10/05 11:19:01;;;;;;;4.73;2.87;;;29.80;63.50;;;;;;4965727;28;20723;-92
2022/10/05 11:21:33;;;;;;;3.87;2.00;;;29.80;62.90;;;;;;4967757;28;20723;-93
2022/10/05 11:24:49;;;;;;;2.80;1.97;;;28.70;62.80;;;;;;4971774;28;20625;-92
2022/10/05 11:27:42;;;;;;;3.40;2.70;;;28.20;68.50;;;;;;4966681;28;20749;-92
2022/10/05 11:30:37;;;;;;;4.20;2.80;;;28.60;68.10;;;;;;4968158;28;20710;-92
2022/10/05 11:34:02;;;;;;;4.40;2.53;;;30.30;60.40;;;;;;4969352;28;20625;-92
2022/10/05 11:37:12;;;;;;;2.73;2.53;;;28.50;65.50;;;;;;4891520;29;20629;-90
2022/10/05 11:39:47;;;;;;;2.77;2.57;;;25.80;79.70;;;;;;4893092;29;20633;-92
2022/10/05 11:42:48;;;;;;;8.23;2.60;;;26.40;81.60;;;;;;4955934;28;20621;-92
2022/10/05 11:45:21;;;;;;;2.53;2.33;;;27.60;73.50;;;;;;4960310;28;20692;-92
2022/10/05 11:48:33;;;;;;;2.80;2.53;;;25.50;80.40;;;;;;4971192;28;20720;-92
2022/10/05 11:51:35;;;;;;;2.70;2.10;;;27.90;76.80;;;;;;4959621;28;20610;-89
2022/10/05 11:54:19;;;;;;;3.13;2.80;;;28.40;67.90;;;;;;4967915;28;21054;-93
2022/10/05 11:56:53;;;;;;;3.53;2.13;;;27.40;71.80;;;;;;4974029;28;21225;-94
2022/10/05 11:59:26;;;;;;;2.77;2.53;;;27.60;74.50;;;;;;4972567;28;20654;-91
2022/10/05 12:02:04;;;;;;;3.97;2.73;;;28.70;70.40;;;;;;4967917;28;21243;-92
2022/10/05 12:04:41;;;;;;;3.00;1.97;;;30.40;63.10;;;;;;4967260;28;20699;-91
2022/10/05 12:07:18;;;;;;;2.23;1.90;;;30.20;61.80;;;;;;4969684;28;20971;-90
2022/10/05 12:10:15;;;;;;;2.80;2.23;;;29.20;62.60;;;;;;4967913;28;20903;-91
2022/10/05 12:13:01;;;;;;;2.03;1.70;;;29.80;62.50;;;;;;4966697;28;21259;-90
2022/10/05 12:15:36;;;;;;;1.87;1.73;;;29.00;61.20;;;;;;4964714;28;20906;-91
2022/10/05 12:18:12;;;;;;;2.07;1.40;;;28.90;61.90;;;;;;4968796;28;20635;-92
2022/10/05 12:20:46;;;;;;;4.50;2.00;;;28.80;61.40;;;;;;4968865;28;20652;-92
2022/10/05 12:23:19;;;;;;;1.70;1.60;;;29.00;61.50;;;;;;4965633;28;20651;-91
2022/10/05 12:25:54;;;;;;;1.60;1.50;;;29.20;62.40;;;;;;4968049;28;20729;-92
2022/10/05 12:28:28;;;;;;;1.90;1.33;;;30.50;59.30;;;;;;4969998;28;20608;-93
2022/10/05 12:31:06;;;;;;;2.30;1.53;;;30.70;57.40;;;;;;4967920;28;21319;-93
2022/10/05 12:33:39;;;;;;;2.20;1.60;;;31.30;57.20;;;;;;4967985;28;20637;-92
2022/10/05 12:36:12;;;;;;;1.87;1.67;;;31.00;57.60;;;;;;4967543;28;20661;-90
2022/10/05 12:38:44;;;;;;;4.07;1.70;;;30.90;56.50;;;;;;4966131;28;20661;-91
2022/10/05 12:41:21;;;;;;;5.33;1.90;;;31.70;55.20;;;;;;4968869;28;20768;-92
2022/10/05 12:44:06;;;;;;;1.80;1.70;;;32.10;54.70;;;;;;4966978;28;20669;-91
2022/10/05 12:46:41;;;;;;;1.70;1.60;;;30.40;56.30;;;;;;4969747;28;21192;-92
2022/10/05 12:49:28;;;;;;;4.20;1.90;;;29.50;59.30;;;;;;4964130;28;20684;-91
2022/10/05 12:51:58;;;;;;;2.77;1.60;;;29.80;56.90;;;;;;4966185;28;21060;-91
2022/10/05 12:54:37;;;;;;;1.87;1.60;;;30.00;56.10;;;;;;4969015;28;20673;-93
2022/10/05 12:57:17;;;;;;;1.90;1.50;;;30.30;57.30;;;;;;4968535;28;21389;-93
2022/10/05 12:59:50;;;;;;;1.97;1.60;;;28.30;58.00;;;;;;4967360;28;20658;-92
2022/10/05 13:02:29;;;;;;;3.17;1.50;;;29.50;57.80;;;;;;4967362;28;20664;-92
2022/10/05 13:05:04;;;;;;;2.57;2.37;;;30.00;57.20;;;;;;4968072;28;21060;-92
2022/10/05 13:07:51;;;;;;;2.23;1.37;;;30.50;56.60;;;;;;4967486;28;20629;-92
2022/10/05 13:10:29;;;;;;;2.17;1.97;;;30.70;54.90;;;;;;4960645;28;20661;-92
2022/10/05 13:13:09;;;;;;;3.70;1.50;;;29.40;55.30;;;;;;4966445;28;20717;-91
2022/10/05 13:15:45;;;;;;;1.70;1.60;;;29.70;54.00;;;;;;4959975;28;20652;-91
2022/10/05 13:18:21;;;;;;;1.83;1.60;;;30.20;53.60;;;;;;4959884;28;20637;-91
2022/10/05 13:21:01;;;;;;;2.20;1.67;;;30.80;53.90;;;;;;4959320;28;20653;-92
2022/10/05 13:23:34;;;;;;;1.00;0.80;;;31.60;53.20;;;;;;4959290;28;21193;-91
2022/10/05 13:26:06;;;;;;;2.20;0.97;;;29.60;45.30;;;;;;4961129;28;20657;-92
2022/10/05 13:28:41;;;;;;;5.83;0.90;;;30.90;45.90;;;;;;4960710;28;20617;-91
2022/10/05 13:31:14;;;;;;;1.77;1.20;;;31.30;43.60;;;;;;4957746;28;20676;-91
2022/10/05 13:33:58;;;;;;;2.70;1.60;;;30.20;41.10;;;;;;4959755;28;20904;-91
2022/10/05 13:36:37;;;;;;;0.80;0.80;;;29.50;41.30;;;;;;4959148;28;21894;-90
2022/10/05 13:39:18;;;;;;;1.20;0.80;;;29.30;41.20;;;;;;4960375;28;20646;-91
2022/10/05 13:41:54;;;;;;;1.30;0.90;;;30.20;40.30;;;;;;4957436;28;20652;-91
2022/10/05 13:44:29;;;;;;;5.20;1.00;;;31.20;40.10;;;;;;4958319;28;20741;-91
2022/10/05 13:47:01;;;;;;;2.40;1.03;;;30.80;39.50;;;;;;4959530;28;20644;-91